sensor_id;sensor_type;location;lat;lon;timestamp;P1;durP1;ratioP1;P2;durP2;ratioP2
37241;SDS011;23135;51.078;12.108;2023-09-30T00:01:10;9.52;;;2.55;;
37241;SDS011;23135;51.078;12.108;2023-09-30T00:03:36;4.32;;;2.05;;
37241;SDS011;23135;51.078;12.108;2023-09-30T00:06:02;4.63;;;1.42;;
37241;SDS011;23135;51.078;12.108;2023-09-30T00:08:29;5.28;;;1.90;;
37241;SDS011;23135;51.078;12.108;2023-09-30T00:10:54;3.67;;;1.58;;
37241;SDS011;23135;51.078;12.108;2023-09-30T00:13:20;3.35;;;1.02;;
37241;SDS011;23135;51.078;12.108;2023-09-30T00:15:46;4.88;;;1.58;;
37241;SDS011;23135;51.078;12.108;2023-09-30T00:18:12;2.63;;;1.27;;
37241;SDS011;23135;51.078;12.108;2023-09-30T00:20:38;6.32;;;1.65;;
37241;SDS011;23135;51.078;12.108;2023-09-30T00:23:04;3.15;;;1.70;;
37241;SDS011;23135;51.078;12.108;2023-09-30T00:25:31;4.90;;;1.35;;
37241;SDS011;23135;51.078;12.108;2023-09-30T00:27:57;4.85;;;1.92;;
37241;SDS011;23135;51.078;12.108;2023-09-30T00:30:23;6.82;;;2.22;;
37241;SDS011;23135;51.078;12.108;2023-09-30T00:32:49;4.60;;;2.05;;
37241;SDS011;23135;51.078;12.108;2023-09-30T00:35:14;3.45;;;1.88;;
37241;SDS011;23135;51.078;12.108;2023-09-30T00:37:41;4.63;;;2.63;;
37241;SDS011;23135;51.078;12.108;2023-09-30T00:40:07;7.97;;;3.30;;
37241;SDS011;23135;51.078;12.108;2023-09-30T00:42:37;6.22;;;4.65;;
37241;SDS011;23135;51.078;12.108;2023-09-30T00:45:03;12.27;;;3.90;;
37241;SDS011;23135;51.078;12.108;2023-09-30T00:47:30;11.50;;;4.15;;
37241;SDS011;23135;51.078;12.108;2023-09-30T00:49:56;10.15;;;3.97;;
37241;SDS011;23135;51.078;12.108;2023-09-30T00:52:21;9.07;;;2.75;;
37241;SDS011;23135;51.078;12.108;2023-09-30T00:54:48;7.10;;;2.00;;
37241;SDS011;23135;51.078;12.108;2023-09-30T00:57:15;7.30;;;1.45;;
37241;SDS011;23135;51.078;12.108;2023-09-30T00:59:43;8.30;;;1.23;;
37241;SDS011;23135;51.078;12.108;2023-09-30T01:02:09;4.35;;;0.82;;
37241;SDS011;23135;51.078;12.108;2023-09-30T01:04:35;8.02;;;1.13;;
37241;SDS011;23135;51.078;12.108;2023-09-30T01:07:01;5.40;;;0.93;;
37241;SDS011;23135;51.078;12.108;2023-09-30T01:09:27;5.90;;;1.40;;
37241;SDS011;23135;51.078;12.108;2023-09-30T01:11:53;7.40;;;1.45;;
37241;SDS011;23135;51.078;12.108;2023-09-30T01:14:25;5.20;;;0.55;;
37241;SDS011;23135;51.078;12.108;2023-09-30T01:16:52;6.50;;;1.30;;
37241;SDS011;23135;51.078;12.108;2023-09-30T01:19:18;4.35;;;0.75;;
37241;SDS011;23135;51.078;12.108;2023-09-30T01:21:44;4.65;;;1.23;;
37241;SDS011;23135;51.078;12.108;2023-09-30T01:24:13;6.78;;;0.98;;
37241;SDS011;23135;51.078;12.108;2023-09-30T01:26:39;4.03;;;1.38;;
37241;SDS011;23135;51.078;12.108;2023-09-30T01:29:05;3.45;;;1.27;;
37241;SDS011;23135;51.078;12.108;2023-09-30T01:31:31;3.33;;;0.70;;
37241;SDS011;23135;51.078;12.108;2023-09-30T01:33:56;8.00;;;1.65;;
37241;SDS011;23135;51.078;12.108;2023-09-30T01:36:22;9.57;;;1.65;;
37241;SDS011;23135;51.078;12.108;2023-09-30T01:38:47;5.68;;;1.15;;
37241;SDS011;23135;51.078;12.108;2023-09-30T01:41:13;9.82;;;1.67;;
37241;SDS011;23135;51.078;12.108;2023-09-30T01:43:38;11.75;;;1.75;;
37241;SDS011;23135;51.078;12.108;2023-09-30T01:46:04;7.25;;;1.20;;
37241;SDS011;23135;51.078;12.108;2023-09-30T01:48:31;9.13;;;1.88;;
37241;SDS011;23135;51.078;12.108;2023-09-30T01:50:56;7.82;;;1.15;;
37241;SDS011;23135;51.078;12.108;2023-09-30T01:53:22;10.90;;;2.03;;
37241;SDS011;23135;51.078;12.108;2023-09-30T01:55:48;3.65;;;1.38;;
37241;SDS011;23135;51.078;12.108;2023-09-30T01:58:14;5.38;;;1.70;;
37241;SDS011;23135;51.078;12.108;2023-09-30T02:00:39;8.20;;;2.45;;
37241;SDS011;23135;51.078;12.108;2023-09-30T02:03:05;4.88;;;1.98;;
37241;SDS011;23135;51.078;12.108;2023-09-30T02:05:30;8.60;;;2.17;;
37241;SDS011;23135;51.078;12.108;2023-09-30T02:07:56;8.40;;;3.05;;
37241;SDS011;23135;51.078;12.108;2023-09-30T02:10:21;9.23;;;2.25;;
37241;SDS011;23135;51.078;12.108;2023-09-30T02:12:47;9.15;;;2.65;;
37241;SDS011;23135;51.078;12.108;2023-09-30T02:15:13;9.10;;;2.50;;
37241;SDS011;23135;51.078;12.108;2023-09-30T02:17:39;14.15;;;2.45;;
37241;SDS011;23135;51.078;12.108;2023-09-30T02:20:10;15.20;;;2.75;;
37241;SDS011;23135;51.078;12.108;2023-09-30T02:22:40;9.50;;;2.10;;
37241;SDS011;23135;51.078;12.108;2023-09-30T02:25:07;8.30;;;1.60;;
37241;SDS011;23135;51.078;12.108;2023-09-30T02:27:33;10.95;;;1.10;;
37241;SDS011;23135;51.078;12.108;2023-09-30T02:29:59;7.00;;;2.50;;
37241;SDS011;23135;51.078;12.108;2023-09-30T02:32:25;5.50;;;1.15;;
37241;SDS011;23135;51.078;12.108;2023-09-30T02:34:50;9.45;;;1.60;;
37241;SDS011;23135;51.078;12.108;2023-09-30T02:37:16;4.57;;;0.88;;
37241;SDS011;23135;51.078;12.108;2023-09-30T02:39:43;10.50;;;1.08;;
37241;SDS011;23135;51.078;12.108;2023-09-30T02:42:09;3.85;;;1.45;;
37241;SDS011;23135;51.078;12.108;2023-09-30T02:44:35;6.68;;;1.15;;
37241;SDS011;23135;51.078;12.108;2023-09-30T02:47:01;8.55;;;0.90;;
37241;SDS011;23135;51.078;12.108;2023-09-30T02:49:27;3.72;;;1.27;;
37241;SDS011;23135;51.078;12.108;2023-09-30T02:51:52;13.77;;;2.28;;
37241;SDS011;23135;51.078;12.108;2023-09-30T02:54:18;12.10;;;1.67;;
37241;SDS011;23135;51.078;12.108;2023-09-30T02:56:44;10.68;;;1.40;;
37241;SDS011;23135;51.078;12.108;2023-09-30T02:59:11;10.18;;;1.30;;
37241;SDS011;23135;51.078;12.108;2023-09-30T03:01:38;4.65;;;1.27;;
37241;SDS011;23135;51.078;12.108;2023-09-30T03:04:03;14.05;;;3.15;;
37241;SDS011;23135;51.078;12.108;2023-09-30T03:06:32;4.30;;;1.02;;
37241;SDS011;23135;51.078;12.108;2023-09-30T03:09:03;12.85;;;2.42;;
37241;SDS011;23135;51.078;12.108;2023-09-30T03:11:30;10.63;;;2.95;;
37241;SDS011;23135;51.078;12.108;2023-09-30T03:13:56;4.53;;;1.20;;
37241;SDS011;23135;51.078;12.108;2023-09-30T03:16:22;5.78;;;1.80;;
37241;SDS011;23135;51.078;12.108;2023-09-30T03:18:49;7.80;;;1.58;;
37241;SDS011;23135;51.078;12.108;2023-09-30T03:21:15;9.80;;;1.15;;
37241;SDS011;23135;51.078;12.108;2023-09-30T03:23:42;5.10;;;1.38;;
37241;SDS011;23135;51.078;12.108;2023-09-30T03:26:08;4.65;;;1.25;;
37241;SDS011;23135;51.078;12.108;2023-09-30T03:28:38;14.88;;;1.92;;
37241;SDS011;23135;51.078;12.108;2023-09-30T03:31:04;9.88;;;1.85;;
37241;SDS011;23135;51.078;12.108;2023-09-30T03:33:31;12.85;;;1.27;;
37241;SDS011;23135;51.078;12.108;2023-09-30T03:35:57;13.77;;;1.40;;
37241;SDS011;23135;51.078;12.108;2023-09-30T03:38:23;7.63;;;1.30;;
37241;SDS011;23135;51.078;12.108;2023-09-30T03:40:50;7.95;;;2.20;;
37241;SDS011;23135;51.078;12.108;2023-09-30T03:43:18;8.32;;;1.10;;
37241;SDS011;23135;51.078;12.108;2023-09-30T03:45:44;5.88;;;1.50;;
37241;SDS011;23135;51.078;12.108;2023-09-30T03:48:10;7.95;;;0.90;;
37241;SDS011;23135;51.078;12.108;2023-09-30T03:50:36;8.75;;;1.58;;
37241;SDS011;23135;51.078;12.108;2023-09-30T03:53:03;9.30;;;1.27;;
37241;SDS011;23135;51.078;12.108;2023-09-30T03:55:30;9.68;;;1.30;;
37241;SDS011;23135;51.078;12.108;2023-09-30T03:57:57;13.25;;;1.55;;
37241;SDS011;23135;51.078;12.108;2023-09-30T04:00:23;14.35;;;2.35;;
37241;SDS011;23135;51.078;12.108;2023-09-30T04:02:49;7.50;;;1.38;;
37241;SDS011;23135;51.078;12.108;2023-09-30T04:05:19;12.73;;;2.47;;
37241;SDS011;23135;51.078;12.108;2023-09-30T04:07:49;8.48;;;1.20;;
37241;SDS011;23135;51.078;12.108;2023-09-30T04:10:14;12.38;;;1.88;;
37241;SDS011;23135;51.078;12.108;2023-09-30T04:12:40;8.15;;;1.02;;
37241;SDS011;23135;51.078;12.108;2023-09-30T04:15:06;6.00;;;1.10;;
37241;SDS011;23135;51.078;12.108;2023-09-30T04:17:34;9.35;;;1.40;;
37241;SDS011;23135;51.078;12.108;2023-09-30T04:20:02;9.55;;;1.90;;
37241;SDS011;23135;51.078;12.108;2023-09-30T04:22:31;8.23;;;1.67;;
37241;SDS011;23135;51.078;12.108;2023-09-30T04:24:57;9.13;;;1.70;;
37241;SDS011;23135;51.078;12.108;2023-09-30T04:27:23;10.32;;;0.98;;
37241;SDS011;23135;51.078;12.108;2023-09-30T04:29:49;7.80;;;0.80;;
37241;SDS011;23135;51.078;12.108;2023-09-30T04:32:15;4.97;;;0.90;;
37241;SDS011;23135;51.078;12.108;2023-09-30T04:34:41;7.72;;;1.23;;
37241;SDS011;23135;51.078;12.108;2023-09-30T04:37:06;5.20;;;0.85;;
37241;SDS011;23135;51.078;12.108;2023-09-30T04:39:34;10.25;;;1.40;;
37241;SDS011;23135;51.078;12.108;2023-09-30T04:42:00;3.25;;;0.82;;
37241;SDS011;23135;51.078;12.108;2023-09-30T04:44:26;9.52;;;1.45;;
37241;SDS011;23135;51.078;12.108;2023-09-30T04:46:55;8.57;;;1.30;;
37241;SDS011;23135;51.078;12.108;2023-09-30T04:49:21;11.63;;;1.63;;
37241;SDS011;23135;51.078;12.108;2023-09-30T04:51:48;6.35;;;0.93;;
37241;SDS011;23135;51.078;12.108;2023-09-30T04:54:14;7.45;;;1.05;;
37241;SDS011;23135;51.078;12.108;2023-09-30T04:56:39;11.98;;;2.65;;
37241;SDS011;23135;51.078;12.108;2023-09-30T04:59:05;8.82;;;0.95;;
37241;SDS011;23135;51.078;12.108;2023-09-30T05:01:31;8.68;;;1.15;;
37241;SDS011;23135;51.078;12.108;2023-09-30T05:03:56;7.43;;;1.25;;
37241;SDS011;23135;51.078;12.108;2023-09-30T05:06:22;11.68;;;1.00;;
37241;SDS011;23135;51.078;12.108;2023-09-30T05:08:48;8.30;;;1.85;;
37241;SDS011;23135;51.078;12.108;2023-09-30T05:11:13;13.50;;;1.67;;
37241;SDS011;23135;51.078;12.108;2023-09-30T05:13:40;6.65;;;1.83;;
37241;SDS011;23135;51.078;12.108;2023-09-30T05:16:05;10.82;;;2.80;;
37241;SDS011;23135;51.078;12.108;2023-09-30T05:18:34;11.77;;;2.05;;
37241;SDS011;23135;51.078;12.108;2023-09-30T05:20:59;11.32;;;2.30;;
37241;SDS011;23135;51.078;12.108;2023-09-30T05:23:25;10.52;;;0.95;;
37241;SDS011;23135;51.078;12.108;2023-09-30T05:25:51;12.88;;;1.40;;
37241;SDS011;23135;51.078;12.108;2023-09-30T05:28:18;10.35;;;1.67;;
37241;SDS011;23135;51.078;12.108;2023-09-30T05:30:45;9.02;;;0.77;;
37241;SDS011;23135;51.078;12.108;2023-09-30T05:33:10;11.30;;;1.40;;
37241;SDS011;23135;51.078;12.108;2023-09-30T05:35:39;8.18;;;1.38;;
37241;SDS011;23135;51.078;12.108;2023-09-30T05:38:06;13.77;;;1.17;;
37241;SDS011;23135;51.078;12.108;2023-09-30T05:40:32;6.57;;;1.13;;
37241;SDS011;23135;51.078;12.108;2023-09-30T05:42:58;12.85;;;1.60;;
37241;SDS011;23135;51.078;12.108;2023-09-30T05:45:25;14.20;;;1.08;;
37241;SDS011;23135;51.078;12.108;2023-09-30T05:47:52;5.65;;;1.02;;
37241;SDS011;23135;51.078;12.108;2023-09-30T05:50:19;4.60;;;0.55;;
37241;SDS011;23135;51.078;12.108;2023-09-30T05:52:49;5.68;;;0.70;;
37241;SDS011;23135;51.078;12.108;2023-09-30T05:55:18;8.43;;;0.70;;
37241;SDS011;23135;51.078;12.108;2023-09-30T05:57:47;6.43;;;1.25;;
37241;SDS011;23135;51.078;12.108;2023-09-30T06:00:17;9.25;;;1.52;;
37241;SDS011;23135;51.078;12.108;2023-09-30T06:03:01;7.93;;;1.17;;
37241;SDS011;23135;51.078;12.108;2023-09-30T06:05:30;10.02;;;0.90;;
37241;SDS011;23135;51.078;12.108;2023-09-30T06:07:56;13.82;;;2.38;;
37241;SDS011;23135;51.078;12.108;2023-09-30T06:10:22;8.55;;;1.33;;
37241;SDS011;23135;51.078;12.108;2023-09-30T06:12:48;7.72;;;0.80;;
37241;SDS011;23135;51.078;12.108;2023-09-30T06:15:20;8.10;;;1.02;;
37241;SDS011;23135;51.078;12.108;2023-09-30T06:17:47;12.80;;;1.30;;
37241;SDS011;23135;51.078;12.108;2023-09-30T06:20:13;7.25;;;0.85;;
37241;SDS011;23135;51.078;12.108;2023-09-30T06:22:43;12.13;;;1.60;;
37241;SDS011;23135;51.078;12.108;2023-09-30T06:25:14;10.47;;;1.57;;
37241;SDS011;23135;51.078;12.108;2023-09-30T06:27:42;9.65;;;1.02;;
37241;SDS011;23135;51.078;12.108;2023-09-30T06:30:08;9.82;;;1.52;;
37241;SDS011;23135;51.078;12.108;2023-09-30T06:32:34;6.68;;;0.55;;
37241;SDS011;23135;51.078;12.108;2023-09-30T06:35:01;9.93;;;0.65;;
37241;SDS011;23135;51.078;12.108;2023-09-30T06:37:28;7.53;;;1.27;;
37241;SDS011;23135;51.078;12.108;2023-09-30T06:39:54;10.73;;;1.15;;
37241;SDS011;23135;51.078;12.108;2023-09-30T06:42:20;9.25;;;0.60;;
37241;SDS011;23135;51.078;12.108;2023-09-30T06:44:46;8.60;;;1.67;;
37241;SDS011;23135;51.078;12.108;2023-09-30T06:47:12;14.10;;;2.03;;
37241;SDS011;23135;51.078;12.108;2023-09-30T06:49:38;6.50;;;1.08;;
37241;SDS011;23135;51.078;12.108;2023-09-30T06:52:04;9.65;;;1.35;;
37241;SDS011;23135;51.078;12.108;2023-09-30T06:54:30;9.73;;;0.95;;
37241;SDS011;23135;51.078;12.108;2023-09-30T06:56:56;12.90;;;2.83;;
37241;SDS011;23135;51.078;12.108;2023-09-30T06:59:22;9.13;;;0.82;;
37241;SDS011;23135;51.078;12.108;2023-09-30T07:01:47;5.35;;;0.98;;
37241;SDS011;23135;51.078;12.108;2023-09-30T07:04:13;9.85;;;1.15;;
37241;SDS011;23135;51.078;12.108;2023-09-30T07:06:39;6.50;;;1.00;;
37241;SDS011;23135;51.078;12.108;2023-09-30T07:09:04;6.75;;;1.00;;
37241;SDS011;23135;51.078;12.108;2023-09-30T07:11:30;6.03;;;1.20;;
37241;SDS011;23135;51.078;12.108;2023-09-30T07:13:59;3.60;;;0.90;;
37241;SDS011;23135;51.078;12.108;2023-09-30T07:16:25;9.10;;;0.90;;
37241;SDS011;23135;51.078;12.108;2023-09-30T07:18:51;7.45;;;1.15;;
37241;SDS011;23135;51.078;12.108;2023-09-30T07:21:16;4.55;;;1.13;;
37241;SDS011;23135;51.078;12.108;2023-09-30T07:23:42;6.60;;;1.08;;
37241;SDS011;23135;51.078;12.108;2023-09-30T07:26:07;10.32;;;1.75;;
37241;SDS011;23135;51.078;12.108;2023-09-30T07:28:33;9.18;;;1.08;;
37241;SDS011;23135;51.078;12.108;2023-09-30T07:30:59;7.70;;;0.95;;
37241;SDS011;23135;51.078;12.108;2023-09-30T07:33:25;7.55;;;1.55;;
37241;SDS011;23135;51.078;12.108;2023-09-30T07:35:50;8.48;;;1.58;;
37241;SDS011;23135;51.078;12.108;2023-09-30T07:38:16;7.63;;;0.80;;
37241;SDS011;23135;51.078;12.108;2023-09-30T07:40:42;3.90;;;0.93;;
37241;SDS011;23135;51.078;12.108;2023-09-30T07:43:08;4.38;;;0.85;;
37241;SDS011;23135;51.078;12.108;2023-09-30T07:45:35;5.53;;;0.93;;
37241;SDS011;23135;51.078;12.108;2023-09-30T07:48:01;5.85;;;0.73;;
37241;SDS011;23135;51.078;12.108;2023-09-30T07:50:30;5.07;;;0.75;;
37241;SDS011;23135;51.078;12.108;2023-09-30T07:52:56;10.98;;;1.38;;
37241;SDS011;23135;51.078;12.108;2023-09-30T07:55:23;3.78;;;0.55;;
37241;SDS011;23135;51.078;12.108;2023-09-30T07:57:49;5.25;;;0.90;;
37241;SDS011;23135;51.078;12.108;2023-09-30T08:00:14;8.18;;;1.13;;
37241;SDS011;23135;51.078;12.108;2023-09-30T08:02:41;3.60;;;0.68;;
37241;SDS011;23135;51.078;12.108;2023-09-30T08:05:08;7.10;;;0.93;;
37241;SDS011;23135;51.078;12.108;2023-09-30T08:07:34;4.18;;;0.60;;
37241;SDS011;23135;51.078;12.108;2023-09-30T08:10:00;9.63;;;0.77;;
37241;SDS011;23135;51.078;12.108;2023-09-30T08:12:26;11.00;;;1.13;;
37241;SDS011;23135;51.078;12.108;2023-09-30T08:14:51;7.75;;;1.00;;
37241;SDS011;23135;51.078;12.108;2023-09-30T08:17:17;8.00;;;1.20;;
37241;SDS011;23135;51.078;12.108;2023-09-30T08:19:46;8.63;;;1.05;;
37241;SDS011;23135;51.078;12.108;2023-09-30T08:22:13;5.70;;;0.88;;
37241;SDS011;23135;51.078;12.108;2023-09-30T08:24:39;9.13;;;0.90;;
37241;SDS011;23135;51.078;12.108;2023-09-30T08:27:04;6.95;;;0.95;;
37241;SDS011;23135;51.078;12.108;2023-09-30T08:29:33;8.30;;;1.73;;
37241;SDS011;23135;51.078;12.108;2023-09-30T08:32:01;9.85;;;1.00;;
37241;SDS011;23135;51.078;12.108;2023-09-30T08:34:27;5.50;;;0.98;;
37241;SDS011;23135;51.078;12.108;2023-09-30T08:36:53;7.57;;;1.05;;
37241;SDS011;23135;51.078;12.108;2023-09-30T08:39:19;7.38;;;0.75;;
37241;SDS011;23135;51.078;12.108;2023-09-30T08:41:45;4.38;;;0.50;;
37241;SDS011;23135;51.078;12.108;2023-09-30T08:44:11;8.27;;;0.77;;
37241;SDS011;23135;51.078;12.108;2023-09-30T08:46:37;7.32;;;0.68;;
37241;SDS011;23135;51.078;12.108;2023-09-30T08:49:05;11.15;;;0.88;;
37241;SDS011;23135;51.078;12.108;2023-09-30T08:51:32;4.93;;;1.33;;
37241;SDS011;23135;51.078;12.108;2023-09-30T08:53:58;6.95;;;1.17;;
37241;SDS011;23135;51.078;12.108;2023-09-30T08:56:26;7.95;;;1.17;;
37241;SDS011;23135;51.078;12.108;2023-09-30T08:58:56;4.43;;;1.20;;
37241;SDS011;23135;51.078;12.108;2023-09-30T09:01:26;8.20;;;1.02;;
37241;SDS011;23135;51.078;12.108;2023-09-30T09:03:52;6.90;;;1.67;;
37241;SDS011;23135;51.078;12.108;2023-09-30T09:06:20;11.40;;;1.08;;
37241;SDS011;23135;51.078;12.108;2023-09-30T09:08:46;4.57;;;0.73;;
37241;SDS011;23135;51.078;12.108;2023-09-30T09:11:12;7.53;;;0.77;;
37241;SDS011;23135;51.078;12.108;2023-09-30T09:13:49;9.80;;;1.25;;
37241;SDS011;23135;51.078;12.108;2023-09-30T09:16:21;7.97;;;0.60;;
37241;SDS011;23135;51.078;12.108;2023-09-30T09:18:47;10.45;;;2.35;;
37241;SDS011;23135;51.078;12.108;2023-09-30T09:21:14;7.78;;;0.88;;
37241;SDS011;23135;51.078;12.108;2023-09-30T09:23:43;5.78;;;0.52;;
37241;SDS011;23135;51.078;12.108;2023-09-30T09:26:11;9.85;;;1.45;;
37241;SDS011;23135;51.078;12.108;2023-09-30T09:29:01;9.02;;;1.00;;
37241;SDS011;23135;51.078;12.108;2023-09-30T09:31:32;9.23;;;1.17;;
37241;SDS011;23135;51.078;12.108;2023-09-30T09:34:13;11.75;;;1.10;;
37241;SDS011;23135;51.078;12.108;2023-09-30T09:36:40;12.95;;;2.03;;
37241;SDS011;23135;51.078;12.108;2023-09-30T09:39:07;16.27;;;2.78;;
37241;SDS011;23135;51.078;12.108;2023-09-30T09:41:33;8.23;;;0.95;;
37241;SDS011;23135;51.078;12.108;2023-09-30T09:44:21;9.52;;;0.80;;
37241;SDS011;23135;51.078;12.108;2023-09-30T09:46:47;11.05;;;1.17;;
37241;SDS011;23135;51.078;12.108;2023-09-30T09:49:16;6.15;;;0.30;;
37241;SDS011;23135;51.078;12.108;2023-09-30T09:51:46;12.02;;;1.15;;
37241;SDS011;23135;51.078;12.108;2023-09-30T09:54:13;8.77;;;0.70;;
37241;SDS011;23135;51.078;12.108;2023-09-30T09:56:41;8.32;;;0.65;;
37241;SDS011;23135;51.078;12.108;2023-09-30T09:59:11;9.50;;;0.82;;
37241;SDS011;23135;51.078;12.108;2023-09-30T10:01:38;7.05;;;0.90;;
37241;SDS011;23135;51.078;12.108;2023-09-30T10:04:05;8.23;;;0.40;;
37241;SDS011;23135;51.078;12.108;2023-09-30T10:06:31;7.00;;;0.63;;
37241;SDS011;23135;51.078;12.108;2023-09-30T10:09:04;9.27;;;1.02;;
37241;SDS011;23135;51.078;12.108;2023-09-30T10:11:33;7.95;;;0.40;;
37241;SDS011;23135;51.078;12.108;2023-09-30T10:13:59;8.07;;;1.38;;
37241;SDS011;23135;51.078;12.108;2023-09-30T10:19:12;9.65;;;0.57;;
37241;SDS011;23135;51.078;12.108;2023-09-30T10:21:39;11.20;;;0.90;;
37241;SDS011;23135;51.078;12.108;2023-09-30T10:35:15;8.43;;;0.82;;
37241;SDS011;23135;51.078;12.108;2023-09-30T10:37:44;22.00;;;0.70;;
37241;SDS011;23135;51.078;12.108;2023-09-30T10:40:26;10.05;;;0.93;;
37241;SDS011;23135;51.078;12.108;2023-09-30T10:42:53;5.88;;;1.17;;
37241;SDS011;23135;51.078;12.108;2023-09-30T10:48:45;5.70;;;1.15;;
37241;SDS011;23135;51.078;12.108;2023-09-30T10:53:43;6.68;;;0.73;;
37241;SDS011;23135;51.078;12.108;2023-09-30T10:56:11;7.95;;;0.25;;
37241;SDS011;23135;51.078;12.108;2023-09-30T10:58:41;7.32;;;0.88;;
37241;SDS011;23135;51.078;12.108;2023-09-30T11:01:08;8.00;;;0.73;;
37241;SDS011;23135;51.078;12.108;2023-09-30T11:03:34;4.50;;;0.40;;
37241;SDS011;23135;51.078;12.108;2023-09-30T11:06:00;6.32;;;0.55;;
37241;SDS011;23135;51.078;12.108;2023-09-30T11:08:28;5.28;;;0.47;;
37241;SDS011;23135;51.078;12.108;2023-09-30T11:10:57;4.05;;;0.25;;
37241;SDS011;23135;51.078;12.108;2023-09-30T11:13:22;9.05;;;0.45;;
37241;SDS011;23135;51.078;12.108;2023-09-30T11:16:00;5.03;;;0.20;;
37241;SDS011;23135;51.078;12.108;2023-09-30T11:18:27;8.17;;;1.37;;
37241;SDS011;23135;51.078;12.108;2023-09-30T11:21:03;9.38;;;0.47;;
37241;SDS011;23135;51.078;12.108;2023-09-30T11:23:38;6.47;;;0.80;;
37241;SDS011;23135;51.078;12.108;2023-09-30T11:26:05;4.43;;;0.43;;
37241;SDS011;23135;51.078;12.108;2023-09-30T11:28:38;6.22;;;0.60;;
37241;SDS011;23135;51.078;12.108;2023-09-30T11:31:07;4.20;;;0.57;;
37241;SDS011;23135;51.078;12.108;2023-09-30T11:33:46;5.88;;;0.57;;
37241;SDS011;23135;51.078;12.108;2023-09-30T11:38:44;4.82;;;0.40;;
37241;SDS011;23135;51.078;12.108;2023-09-30T11:41:12;11.05;;;0.60;;
37241;SDS011;23135;51.078;12.108;2023-09-30T11:43:38;10.07;;;0.45;;
37241;SDS011;23135;51.078;12.108;2023-09-30T11:46:23;8.23;;;1.20;;
37241;SDS011;23135;51.078;12.108;2023-09-30T11:49:01;6.55;;;0.40;;
37241;SDS011;23135;51.078;12.108;2023-09-30T11:51:28;7.50;;;0.63;;
37241;SDS011;23135;51.078;12.108;2023-09-30T11:53:56;4.90;;;0.35;;
37241;SDS011;23135;51.078;12.108;2023-09-30T11:56:25;5.07;;;1.30;;
37241;SDS011;23135;51.078;12.108;2023-09-30T11:58:54;6.15;;;0.57;;
37241;SDS011;23135;51.078;12.108;2023-09-30T12:01:23;3.90;;;0.32;;
37241;SDS011;23135;51.078;12.108;2023-09-30T12:03:50;3.90;;;0.35;;
37241;SDS011;23135;51.078;12.108;2023-09-30T12:06:17;7.78;;;0.65;;
37241;SDS011;23135;51.078;12.108;2023-09-30T12:08:43;2.65;;;0.10;;
37241;SDS011;23135;51.078;12.108;2023-09-30T12:11:10;2.80;;;0.60;;
37241;SDS011;23135;51.078;12.108;2023-09-30T12:13:38;6.82;;;0.80;;
37241;SDS011;23135;51.078;12.108;2023-09-30T12:16:04;4.15;;;0.75;;
37241;SDS011;23135;51.078;12.108;2023-09-30T12:18:30;2.75;;;0.30;;
37241;SDS011;23135;51.078;12.108;2023-09-30T12:20:55;6.07;;;0.45;;
37241;SDS011;23135;51.078;12.108;2023-09-30T12:23:21;16.02;;;1.95;;
37241;SDS011;23135;51.078;12.108;2023-09-30T12:25:47;5.80;;;0.45;;
37241;SDS011;23135;51.078;12.108;2023-09-30T12:28:13;3.45;;;0.25;;
37241;SDS011;23135;51.078;12.108;2023-09-30T12:30:40;6.47;;;0.60;;
37241;SDS011;23135;51.078;12.108;2023-09-30T12:33:06;4.97;;;1.08;;
37241;SDS011;23135;51.078;12.108;2023-09-30T12:35:32;3.65;;;0.38;;
37241;SDS011;23135;51.078;12.108;2023-09-30T12:37:58;2.95;;;0.05;;
37241;SDS011;23135;51.078;12.108;2023-09-30T12:40:24;2.75;;;0.22;;
37241;SDS011;23135;51.078;12.108;2023-09-30T12:42:50;2.45;;;0.40;;
37241;SDS011;23135;51.078;12.108;2023-09-30T12:45:16;4.80;;;0.43;;
37241;SDS011;23135;51.078;12.108;2023-09-30T12:47:43;6.18;;;1.17;;
37241;SDS011;23135;51.078;12.108;2023-09-30T12:50:09;4.72;;;0.47;;
37241;SDS011;23135;51.078;12.108;2023-09-30T12:52:35;6.75;;;0.75;;
37241;SDS011;23135;51.078;12.108;2023-09-30T12:55:01;5.38;;;0.80;;
37241;SDS011;23135;51.078;12.108;2023-09-30T12:57:27;2.40;;;0.30;;
37241;SDS011;23135;51.078;12.108;2023-09-30T12:59:52;3.63;;;0.30;;
37241;SDS011;23135;51.078;12.108;2023-09-30T13:02:18;5.82;;;0.47;;
37241;SDS011;23135;51.078;12.108;2023-09-30T13:04:44;4.50;;;0.43;;
37241;SDS011;23135;51.078;12.108;2023-09-30T13:07:11;2.30;;;0.20;;
37241;SDS011;23135;51.078;12.108;2023-09-30T13:09:38;4.70;;;0.40;;
37241;SDS011;23135;51.078;12.108;2023-09-30T13:12:04;1.83;;;0.57;;
37241;SDS011;23135;51.078;12.108;2023-09-30T13:14:30;4.00;;;0.20;;
37241;SDS011;23135;51.078;12.108;2023-09-30T13:16:55;5.15;;;0.10;;
37241;SDS011;23135;51.078;12.108;2023-09-30T13:19:21;3.20;;;0.40;;
37241;SDS011;23135;51.078;12.108;2023-09-30T13:21:48;7.82;;;0.20;;
37241;SDS011;23135;51.078;12.108;2023-09-30T13:24:18;3.33;;;0.30;;
37241;SDS011;23135;51.078;12.108;2023-09-30T13:26:44;3.67;;;0.55;;
37241;SDS011;23135;51.078;12.108;2023-09-30T13:29:10;3.88;;;0.30;;
37241;SDS011;23135;51.078;12.108;2023-09-30T13:31:37;5.10;;;0.20;;
37241;SDS011;23135;51.078;12.108;2023-09-30T13:34:06;5.55;;;0.50;;
37241;SDS011;23135;51.078;12.108;2023-09-30T13:36:32;2.33;;;0.20;;
37241;SDS011;23135;51.078;12.108;2023-09-30T13:38:57;5.38;;;0.22;;
37241;SDS011;23135;51.078;12.108;2023-09-30T13:41:23;5.13;;;0.35;;
37241;SDS011;23135;51.078;12.108;2023-09-30T13:43:49;4.72;;;0.10;;
37241;SDS011;23135;51.078;12.108;2023-09-30T13:46:14;4.13;;;0.55;;
37241;SDS011;23135;51.078;12.108;2023-09-30T13:48:41;1.67;;;0.10;;
37241;SDS011;23135;51.078;12.108;2023-09-30T13:51:07;4.25;;;0.20;;
37241;SDS011;23135;51.078;12.108;2023-09-30T13:53:33;8.32;;;0.52;;
37241;SDS011;23135;51.078;12.108;2023-09-30T13:56:00;3.67;;;0.30;;
37241;SDS011;23135;51.078;12.108;2023-09-30T13:58:26;2.95;;;0.38;;
37241;SDS011;23135;51.078;12.108;2023-09-30T14:00:51;2.00;;;0.10;;
37241;SDS011;23135;51.078;12.108;2023-09-30T14:03:18;4.93;;;0.40;;
37241;SDS011;23135;51.078;12.108;2023-09-30T14:05:44;6.82;;;0.35;;
37241;SDS011;23135;51.078;12.108;2023-09-30T14:08:10;4.95;;;0.13;;
37241;SDS011;23135;51.078;12.108;2023-09-30T14:10:36;6.70;;;0.10;;
37241;SDS011;23135;51.078;12.108;2023-09-30T14:13:02;5.22;;;0.47;;
37241;SDS011;23135;51.078;12.108;2023-09-30T14:15:28;3.10;;;0.50;;
37241;SDS011;23135;51.078;12.108;2023-09-30T14:17:56;1.48;;;0.13;;
37241;SDS011;23135;51.078;12.108;2023-09-30T14:20:23;8.63;;;0.95;;
37241;SDS011;23135;51.078;12.108;2023-09-30T14:22:50;4.68;;;0.10;;
37241;SDS011;23135;51.078;12.108;2023-09-30T14:25:16;3.03;;;0.25;;
37241;SDS011;23135;51.078;12.108;2023-09-30T14:27:42;2.95;;;0.28;;
37241;SDS011;23135;51.078;12.108;2023-09-30T14:30:08;2.30;;;0.15;;
37241;SDS011;23135;51.078;12.108;2023-09-30T14:32:34;2.22;;;0.10;;
37241;SDS011;23135;51.078;12.108;2023-09-30T14:35:00;3.75;;;0.75;;
37241;SDS011;23135;51.078;12.108;2023-09-30T14:37:26;8.75;;;1.10;;
37241;SDS011;23135;51.078;12.108;2023-09-30T14:39:54;3.85;;;0.73;;
37241;SDS011;23135;51.078;12.108;2023-09-30T14:42:19;4.68;;;0.10;;
37241;SDS011;23135;51.078;12.108;2023-09-30T14:44:45;6.97;;;0.40;;
37241;SDS011;23135;51.078;12.108;2023-09-30T14:47:11;3.13;;;0.10;;
37241;SDS011;23135;51.078;12.108;2023-09-30T14:49:36;2.90;;;0.30;;
37241;SDS011;23135;51.078;12.108;2023-09-30T14:52:02;5.93;;;0.55;;
37241;SDS011;23135;51.078;12.108;2023-09-30T14:54:30;4.47;;;0.30;;